Flight Track Log - Related Links

Times and Time Zones

All times are in EDT time to prevent confusion due to time zone crossing. See the UPS1337 flight status page for this flight to view local times or setup timezone preferences in your user account.

Time Position Orientation Groundspeed Altitude Reporting Facility
EDT Latitude Longitude Course Direction KTS MPH feet Rate Location/Type
Mon 09:44:32 PM 27.9167 -82.6833 360° North 167 192 800  Level Tampa TRACON
Mon 09:45:14 PM 27.9500 -82.6833 360° North 177 204 2,800 1,941 Climbing Tampa TRACON
Mon 09:46:14 PM 28.0167 -82.6833 360° North 251 289 4,100 2,484 Climbing Tampa TRACON
Mon 09:52:53 PM 28.6584 -82.8345 345° North 434 499 21,800 2,564 Climbing FlightAware ADS-B
Mon 09:53:55 PM 28.7697 -82.8667 345° North 417 480 23,800 1,967 Climbing Jacksonville Center
Mon 09:54:55 PM 28.8886 -82.9069 343° North 428 493 25,800 2,150 Climbing Jacksonville Center
Mon 09:55:55 PM 29.0097 -82.9447 345° North 439 505 28,100 2,200 Climbing Jacksonville Center
Mon 09:56:55 PM 29.1308 -82.9806 346° North 439 505 30,200 1,950 Climbing Jacksonville Center
Mon 09:57:55 PM 29.2478 -83.0164 345° North 439 505 32,000 900 Climbing Jacksonville Center
Mon 09:58:55 PM 29.3644 -83.0547 344° North 439 505 32,000  Level Jacksonville Center
Mon 09:59:55 PM 29.4814 -83.0906 345° North 439 505 32,000  Level Jacksonville Center
Mon 10:00:55 PM 29.6003 -83.1292 344° North 439 505 32,000  Level Jacksonville Center
Mon 10:01:55 PM 29.7150 -83.1628 346° North 432 497 32,000  Level Jacksonville Center
Mon 10:07:21 PM 30.3433 -83.3583 345° North 427 491 32,000 -17 Level FlightAware ADS-B
Mon 10:07:55 PM 30.3908 -83.3742 345° North 415 478 31,900  Descending Jacksonville Center
Mon 10:08:55 PM 30.5056 -83.4086 345° North 415 478 32,000 50 Climbing Jacksonville Center
Mon 10:09:55 PM 30.6181 -83.4478 343° North 415 478 32,000  Level Jacksonville Center
Mon 10:10:55 PM 30.7308 -83.4797 346° North 415 478 32,000  Level Jacksonville Center
Mon 10:11:55 PM 30.8517 -83.5194 344° North 408 470 32,000  Level Jacksonville Center
Mon 10:12:55 PM 30.9664 -83.5564 345° North 408 470 32,000  Level Jacksonville Center
Mon 10:13:55 PM 31.0789 -83.5936 344° North 414 476 32,000  Level Jacksonville Center
Mon 10:14:55 PM 31.1872 -83.6283 345° North 414 476 32,000  Level Jacksonville Center
Mon 10:15:55 PM 31.2997 -83.6658 344° North 414 476 32,000  Level Jacksonville Center
Mon 10:17:46 PM 31.5083 -83.7344 344° North 416 479 32,000  Level Atlanta Center
Mon 10:18:46 PM 31.6211 -83.7731 344° North 404 465 32,000  Level Atlanta Center
Mon 10:19:46 PM 31.7233 -83.8019 346° North 409 471 32,000  Level Atlanta Center
Mon 10:20:46 PM 31.8528 -83.8458 344° North 435 501 32,000  Level Atlanta Center
Mon 10:21:46 PM 31.9531 -83.8772 345° North 429 494 32,000  Level Atlanta Center
Mon 10:22:46 PM 32.0639 -83.9139 344° North 423 487 32,000  Level Atlanta Center
Mon 10:23:46 PM 32.1786 -83.9531 344° North 418 481 32,000  Level Atlanta Center
Mon 10:24:46 PM 32.2914 -83.9897 345° North 418 481 32,000  Level Atlanta Center
Mon 10:25:46 PM 32.4042 -84.0264 345° North 418 481 32,000  Level Atlanta Center
Mon 10:26:46 PM 32.5167 -84.0658 344° North 418 481 32,000  Level Atlanta Center
Mon 10:27:46 PM 32.6253 -84.1006 345° North 418 481 32,000  Level Atlanta Center
Mon 10:28:46 PM 32.7358 -84.1400 343° North 418 481 32,000  Level Atlanta Center
Mon 10:29:46 PM 32.8486 -84.1772 345° North 418 481 32,000  Level Atlanta Center
Mon 10:30:46 PM 32.9697 -84.2219 343° North 418 481 32,000  Level Atlanta Center
Mon 10:31:46 PM 33.0822 -84.2569 345° North 418 481 32,000  Level Atlanta Center
Mon 10:32:46 PM 33.1928 -84.2944 344° North 413 475 32,000  Level Atlanta Center
Mon 10:33:46 PM 33.3056 -84.3322 344° North 419 482 32,000  Level Atlanta Center
Mon 10:34:46 PM 33.4181 -84.3672 345° North 414 476 32,000  Level Atlanta Center
Mon 10:40:14 PM 34.0601 -84.5400 348° North 413 475 32,000  Level FlightAware ADS-B (KDZJ)
Mon 10:40:54 PM 34.1361 -84.5586 349° North 423 487 32,000  Level FlightAware ADS-B (KDZJ)
Mon 10:41:34 PM 34.2135 -84.5774 349° North 425 489 32,000  Level FlightAware ADS-B (KDZJ)
Mon 10:42:14 PM 34.2899 -84.5964 348° North 425 489 32,000  Level FlightAware ADS-B (KDZJ)
Mon 10:42:55 PM 34.3686 -84.6162 348° North 426 490 32,000  Level FlightAware ADS-B (KDZJ)
Mon 10:43:34 PM 34.4449 -84.6355 348° North 428 493 32,000  Level FlightAware ADS-B (KDZJ)
Mon 10:44:15 PM 34.5239 -84.6555 348° North 429 494 32,000  Level FlightAware ADS-B (KDZJ)
Mon 10:44:54 PM 34.6003 -84.6749 348° North 430 495 32,000  Level FlightAware ADS-B (KDZJ)
Mon 10:45:35 PM 34.6799 -84.6950 348° North 424 488 32,000  Level FlightAware ADS-B (KDZJ)
Mon 10:46:14 PM 34.7575 -84.7148 348° North 431 496 32,000  Level FlightAware ADS-B (KDZJ)
Mon 10:46:55 PM 34.8383 -84.7353 348° North 447 514 32,000 -815 Level FlightAware ADS-B (KDZJ)
Mon 10:47:35 PM 34.9206 -84.7562 348° North 441 507 30,900 -1,425 Descending FlightAware ADS-B (KDZJ)
Mon 10:48:15 PM 34.9983 -84.7758 348° North 431 496 30,100 -667 Descending FlightAware ADS-B (KDZJ)
Mon 10:48:56 PM 35.0786 -84.7964 348° North 425 489 30,000 -46 Descending FlightAware ADS-B (KDZJ)
Mon 10:50:26 PM 35.2117 -84.8307 348° North 445 512 30,000  Level FlightAware ADS-B (KMDQ)
Mon 10:51:06 PM 35.3207 -84.8587 348° North 447 514 30,000  Level FlightAware ADS-B (KMDQ)
Mon 10:52:05 PM 35.4431 -84.8902 348° North 447 514 30,000  Level FlightAware ADS-B (KMDQ)
Mon 10:52:41 PM 35.5168 -84.9092 348° North 447 514 30,000  Level FlightAware ADS-B (KMDQ)
Mon 10:55:26 PM 35.8481 -84.9942 349° North 446 513 30,000  Level FlightAware ADS-B (KMDQ)
Mon 10:56:04 PM 35.9278 -85.0122 350° North 445 512 30,000  Level FlightAware ADS-B (KMDQ)
Mon 10:56:42 PM 36.0042 -85.0297 349° North 443 510 30,000  Level FlightAware ADS-B (KMDQ)
Mon 10:59:33 PM 36.3318 -85.1064 349° North 425 489 30,000 -356 Level FlightAware ADS-B
Mon 11:00:21 PM 36.3318 -85.1064 349° North 425 489 28,700 -1,414 Descending FlightAware ADS-B
Mon 11:02:44 PM 36.7148 -85.1414 10° North 425 489 25,500 -1,594 Descending FlightAware ADS-B
Mon 11:03:48 PM 36.8340 -85.1167 North 408 470 23,200 -2,226 Descending FlightAware ADS-B
Mon 11:04:48 PM 36.9469 -85.0938 North 396 456 20,900 -1,983 Descending FlightAware ADS-B
Mon 11:05:49 PM 37.0470 -85.0475 37° Northeast 391 450 19,200 -1,576 Descending FlightAware ADS-B
Mon 11:06:46 PM 37.1062 -84.9920 36° Northeast 380 437 17,800 -1,125 Descending FlightAware ADS-B
Mon 11:07:41 PM 37.2063 -84.9010 36° Northeast 376 433 17,100 -344 Descending FlightAware ADS-B
Mon 11:08:48 PM 37.3122 -84.8400 358° North 381 438 17,100 -850 Level FlightAware ADS-B
Mon 11:09:48 PM 37.4121 -84.8709 344° North 359 413 15,300 -2,155 Descending FlightAware ADS-B
Mon 11:10:31 PM 37.4798 -84.8940 346° North 350 403 13,400 -1,400 Descending FlightAware ADS-B
Mon 11:12:48 PM 37.6720 -84.9736 313° West 277 319 11,100 -879 Descending FlightAware ADS-B
Mon 11:13:49 PM 37.7228 -85.0466 310° West 270 311 10,500 -496 Descending FlightAware ADS-B
Mon 11:14:49 PM 37.7688 -85.1184 297° West 265 305 10,100 -200 Descending FlightAware ADS-B
Mon 11:15:49 PM 37.8016 -85.2008 297° West 263 303 10,100 -550 Level FlightAware ADS-B
Mon 11:16:49 PM 37.8340 -85.2813 297° West 261 300 9,000 -1,350 Descending FlightAware ADS-B
Mon 11:17:49 PM 37.8680 -85.3615 298° West 257 296 7,400 -1,412 Descending FlightAware ADS-B
Mon 11:18:48 PM 37.9025 -85.4406 300° West 250 288 6,200 -655 Descending FlightAware ADS-B
Mon 11:19:48 PM 37.9369 -85.5164 300° West 251 289 6,100 -79 Descending FlightAware ADS-B
Mon 11:20:04 PM 37.9459 -85.5362 300° West 251 289 6,100  Level FlightAware ADS-B (EPWR / WRO)
Mon 11:20:29 PM 37.9601 -85.5677 299° West 250 288 6,100  Level FlightAware ADS-B (EPWR / WRO)
Mon 11:20:44 PM 37.9693 -85.5882 299° West 250 288 6,100  Level FlightAware ADS-B (EPWR / WRO)
Mon 11:21:26 PM 37.9916 -85.6389 299° West 250 288 6,100  Level FlightAware ADS-B (EPWR / WRO)
Mon 11:21:48 PM 38.0043 -85.6676 299° West 250 288 6,100  Level FlightAware ADS-B
Mon 11:22:48 PM 38.0393 -85.7458 300° West 251 289 6,100  Level FlightAware ADS-B
Mon 11:23:49 PM 38.0754 -85.8209 319° Northwest 255 293 6,100 -446 Level FlightAware ADS-B
Mon 11:24:49 PM 38.1416 -85.8587 338° Northwest 261 300 5,200 -958 Descending FlightAware ADS-B
Mon 11:25:48 PM 38.2064 -85.8926 338° Northwest 242 278 4,200 -564 Descending FlightAware ADS-B
Mon 11:26:46 PM 38.2607 -85.9164 349° North 209 241 4,100 -475 Descending FlightAware ADS-B
Mon 11:27:29 PM 38.2983 -85.9256 349° North 227 261 3,400 -635 Descending Indianapolis Center
Mon 11:28:30 PM 38.3464 -85.8964 25° Northeast 237 273 3,000 -393 Descending Indianapolis Center
Mon 11:29:31 PM 38.3200 -85.8372 120° Southeast 207 238 2,600 -246 Descending Indianapolis Center
Mon 11:30:32 PM 38.2881 -85.7894 130° Southeast 189 217 2,500 -49 Descending Indianapolis Center
Mon 11:31:33 PM 38.2586 -85.7456 131° Southeast 185 213 2,500  Level Indianapolis Center

Login

Don't have an account? Register now (free) for customized features, flight alerts, and more!